Time;durP1;ratioP1;P1;durP2;ratioP2;P2;SDS_P1;SDS_P2;PMS_P1;PMS_P2;Temp;Humidity;BMP_temperature;BMP_pressure;BME280_temperature;BME280_humidity;BME280_pressure;Samples;Min_cycle;Max_cycle;Signal;HPM_P1;HPM_P2
2021/12/08 00:02:15;;;;;;;45.93;26.93;;;1.20;44.60;;;;;;6240806;28;20325;-55
2021/12/08 00:05:19;;;;;;;42.70;26.37;;;1.00;45.30;;;;;;6239568;28;20316;-53
2021/12/08 00:08:26;;;;;;;43.87;25.93;;;1.10;44.60;;;;;;6239941;28;20274;-54
2021/12/08 00:14:54;;;;;;;46.13;27.17;;;1.20;44.40;;;;;;6240089;28;20255;-53
2021/12/08 00:18:00;;;;;;;40.60;26.07;;;1.10;44.30;;;;;;6247553;28;20239;-53
2021/12/08 00:21:07;;;;;;;45.73;27.10;;;0.90;45.10;;;;;;6265259;28;20455;-54
2021/12/08 00:24:10;;;;;;;45.80;26.57;;;1.20;44.90;;;;;;6264077;28;20229;-54
2021/12/08 00:27:12;;;;;;;41.17;26.80;;;0.90;44.10;;;;;;6259655;28;20408;-54
2021/12/08 00:30:16;;;;;;;43.93;26.40;;;1.30;44.10;;;;;;6238175;28;20226;-54
2021/12/08 00:33:21;;;;;;;43.93;26.30;;;1.00;43.30;;;;;;6239594;28;20555;-54
2021/12/08 00:36:30;;;;;;;45.10;27.70;;;1.30;43.90;;;;;;6246204;28;20735;-53
2021/12/08 00:39:33;;;;;;;41.07;25.17;;;1.30;41.80;;;;;;6264000;28;20312;-54
2021/12/08 00:42:37;;;;;;;44.70;26.93;;;0.90;43.10;;;;;;6264020;28;20324;-54
2021/12/08 00:45:40;;;;;;;45.43;27.37;;;0.80;43.60;;;;;;6255749;28;20281;-57
2021/12/08 00:48:48;;;;;;;41.37;25.87;;;1.10;43.70;;;;;;6247742;28;20243;-55
2021/12/08 00:51:53;;;;;;;40.60;25.97;;;0.90;44.40;;;;;;6263051;28;20230;-54
2021/12/08 00:54:56;;;;;;;40.43;27.40;;;1.00;45.10;;;;;;6251909;28;20434;-55
2021/12/08 00:57:58;;;;;;;42.10;26.40;;;0.80;44.70;;;;;;6236635;28;20654;-53
2021/12/08 01:01:01;;;;;;;44.83;27.40;;;1.10;44.70;;;;;;6252175;28;20233;-53
2021/12/08 01:04:07;;;;;;;42.50;26.40;;;1.00;43.50;;;;;;6254470;28;20237;-54
2021/12/08 01:07:10;;;;;;;42.90;25.33;;;0.60;43.90;;;;;;6262090;28;20229;-53
2021/12/08 01:10:17;;;;;;;43.70;26.87;;;1.00;43.90;;;;;;6262178;28;20320;-53
2021/12/08 01:13:36;;;;;;;44.53;25.43;;;0.60;43.70;;;;;;6253380;28;20707;-58
2021/12/08 01:16:40;;;;;;;41.20;26.63;;;0.90;44.70;;;;;;6247437;28;20253;-54
2021/12/08 01:19:45;;;;;;;40.47;24.70;;;0.70;44.70;;;;;;6254225;28;20230;-54
2021/12/08 01:22:48;;;;;;;43.33;26.23;;;0.70;45.50;;;;;;6252032;28;20327;-54
2021/12/08 01:25:51;;;;;;;43.33;25.90;;;1.00;44.90;;;;;;6257725;28;20266;-53
2021/12/08 01:28:56;;;;;;;40.37;25.63;;;0.70;45.70;;;;;;6242307;28;20230;-53
2021/12/08 01:31:59;;;;;;;46.30;27.00;;;0.80;44.30;;;;;;6244756;28;20524;-54
2021/12/08 01:35:05;;;;;;;40.53;26.67;;;1.00;44.30;;;;;;6259132;28;20788;-55
2021/12/08 01:38:08;;;;;;;40.03;25.83;;;0.80;44.90;;;;;;6250474;28;20591;-55
2021/12/08 01:41:11;;;;;;;43.17;26.40;;;1.00;44.80;;;;;;6258847;28;20239;-55
2021/12/08 01:47:34;;;;;;;45.57;26.30;;;0.70;43.70;;;;;;6245905;28;20230;-55
2021/12/08 01:50:39;;;;;;;41.57;24.53;;;0.80;44.30;;;;;;6250380;28;20710;-55
2021/12/08 01:53:45;;;;;;;42.83;25.97;;;0.80;44.30;;;;;;6237392;28;20593;-55
2021/12/08 01:56:51;;;;;;;39.83;26.07;;;0.90;44.70;;;;;;6235815;28;20235;-55
2021/12/08 01:59:53;;;;;;;48.07;26.73;;;0.80;45.20;;;;;;6259482;28;20399;-55
2021/12/08 02:02:57;;;;;;;46.23;26.27;;;0.70;44.90;;;;;;6249706;28;20242;-55
2021/12/08 02:06:02;;;;;;;43.30;27.00;;;0.90;44.50;;;;;;6259625;28;20241;-54
2021/12/08 02:09:09;;;;;;;47.90;28.17;;;0.60;43.10;;;;;;6252934;28;20234;-54
2021/12/08 02:12:12;;;;;;;42.17;26.47;;;0.80;44.30;;;;;;6251316;28;20230;-54
2021/12/08 02:15:17;;;;;;;46.03;27.07;;;0.90;45.10;;;;;;6238954;28;20273;-54
2021/12/08 02:18:21;;;;;;;42.60;27.27;;;0.80;45.10;;;;;;6248920;28;20754;-54
2021/12/08 02:21:30;;;;;;;45.27;27.30;;;0.90;45.20;;;;;;6251894;28;20329;-54
2021/12/08 02:24:33;;;;;;;40.40;24.90;;;0.80;45.00;;;;;;6247015;28;20743;-59
2021/12/08 02:27:36;;;;;;;41.57;25.43;;;0.80;45.40;;;;;;6245521;28;20325;-54
2021/12/08 02:30:45;;;;;;;37.73;25.10;;;0.70;44.70;;;;;;6235976;28;20723;-54
2021/12/08 02:47:31;;;;;;;39.37;23.73;;;0.50;43.90;;;;;;6216625;28;20435;-54
2021/12/08 02:50:37;;;;;;;38.43;24.57;;;0.80;44.70;;;;;;6216511;28;20234;-55
2021/12/08 02:53:41;;;;;;;38.80;24.80;;;0.90;42.70;;;;;;6232218;28;20235;-55
2021/12/08 02:56:44;;;;;;;34.20;22.70;;;0.70;44.00;;;;;;6232764;28;20614;-53
2021/12/08 02:59:47;;;;;;;39.90;24.00;;;0.70;42.80;;;;;;6251067;28;20230;-54
2021/12/08 03:02:50;;;;;;;36.13;23.90;;;0.70;42.20;;;;;;6252180;28;20310;-54
2021/12/08 03:05:53;;;;;;;39.43;23.93;;;0.70;42.90;;;;;;6262097;28;20242;-54
2021/12/08 03:08:58;;;;;;;37.30;23.90;;;0.40;43.10;;;;;;6253216;28;20720;-54
2021/12/08 03:12:02;;;;;;;40.43;24.27;;;0.70;43.40;;;;;;6253524;28;20301;-55
2021/12/08 03:15:06;;;;;;;36.60;24.07;;;0.50;44.40;;;;;;6251997;28;20380;-56
2021/12/08 03:18:09;;;;;;;39.57;24.20;;;0.70;44.40;;;;;;6252705;28;20226;-55
2021/12/08 03:21:12;;;;;;;36.90;24.40;;;0.70;44.10;;;;;;6258852;28;20238;-56
2021/12/08 03:24:24;;;;;;;37.10;24.10;;;0.40;44.40;;;;;;6256277;28;20240;-57
2021/12/08 03:27:37;;;;;;;40.90;23.87;;;0.50;43.70;;;;;;6254940;28;20238;-54
2021/12/08 03:30:52;;;;;;;41.80;25.30;;;0.60;44.40;;;;;;6215883;28;20708;-53
2021/12/08 03:33:55;;;;;;;34.53;22.50;;;0.80;43.00;;;;;;6264977;28;20241;-54
2021/12/08 03:36:58;;;;;;;38.47;25.27;;;0.80;42.60;;;;;;6264911;28;20750;-55
2021/12/08 03:40:07;;;;;;;40.60;25.40;;;0.70;43.40;;;;;;6234697;28;20373;-54
2021/12/08 03:43:12;;;;;;;34.40;24.07;;;0.70;43.60;;;;;;6236612;28;20309;-53
2021/12/08 03:46:16;;;;;;;38.07;23.73;;;0.60;43.20;;;;;;6240266;28;20289;-55
2021/12/08 03:49:22;;;;;;;38.87;24.77;;;0.70;43.70;;;;;;6252859;28;20230;-54
2021/12/08 03:52:26;;;;;;;35.90;24.60;;;0.50;43.60;;;;;;6263540;28;20661;-55
2021/12/08 03:55:30;;;;;;;40.43;25.00;;;0.40;43.70;;;;;;6264335;28;20253;-53
2021/12/08 03:58:33;;;;;;;42.20;26.17;;;0.70;43.50;;;;;;6225067;28;20611;-54
2021/12/08 04:01:36;;;;;;;36.30;24.33;;;0.60;42.80;;;;;;6214506;28;20309;-54
2021/12/08 04:04:44;;;;;;;39.23;25.10;;;0.70;42.80;;;;;;6214849;28;20235;-54
2021/12/08 04:07:48;;;;;;;41.87;25.67;;;0.60;43.30;;;;;;6214360;28;20338;-54
2021/12/08 04:10:53;;;;;;;44.53;26.37;;;0.20;44.00;;;;;;6220382;28;20292;-54
2021/12/08 04:13:58;;;;;;;38.60;25.07;;;0.60;44.70;;;;;;6238077;28;20424;-57
2021/12/08 04:17:07;;;;;;;40.77;25.70;;;0.60;44.10;;;;;;6242939;28;20296;-57
2021/12/08 04:20:15;;;;;;;44.07;26.97;;;0.60;43.20;;;;;;6232001;28;20587;-54
2021/12/08 04:23:20;;;;;;;41.57;27.50;;;0.90;44.30;;;;;;6214181;28;20373;-53
2021/12/08 04:26:31;;;;;;;40.27;24.83;;;0.60;43.70;;;;;;6214790;28;20306;-54
2021/12/08 04:29:37;;;;;;;44.87;25.53;;;0.60;43.90;;;;;;6233150;28;20564;-54
2021/12/08 04:32:40;;;;;;;42.37;26.47;;;0.60;44.00;;;;;;6212508;28;20626;-54
2021/12/08 04:35:46;;;;;;;41.03;25.77;;;0.60;42.70;;;;;;6230243;28;21767;-53
2021/12/08 04:38:53;;;;;;;40.03;26.47;;;0.80;44.40;;;;;;6228822;28;20340;-54
2021/12/08 04:42:03;;;;;;;37.00;26.17;;;0.60;44.50;;;;;;6224986;28;20667;-56
2021/12/08 04:45:16;;;;;;;42.67;25.67;;;0.40;44.30;;;;;;6235163;28;20240;-54
2021/12/08 04:48:34;;;;;;;43.67;26.27;;;0.50;44.30;;;;;;6222927;28;20754;-54
2021/12/08 04:51:46;;;;;;;41.33;25.27;;;0.80;43.10;;;;;;6227893;28;20234;-54
2021/12/08 05:02:03;;;;;;;36.90;24.50;;;0.40;45.80;;;;;;6184260;28;20494;-54
2021/12/08 05:05:18;;;;;;;40.67;25.13;;;0.40;45.50;;;;;;6223474;28;20254;-55
2021/12/08 05:08:24;;;;;;;39.30;25.87;;;0.60;45.40;;;;;;6224218;28;20342;-55
2021/12/08 05:11:31;;;;;;;37.93;25.80;;;0.80;44.10;;;;;;6235079;28;20314;-55
2021/12/08 05:14:41;;;;;;;40.50;26.30;;;0.70;43.40;;;;;;6235516;28;20249;-55
2021/12/08 05:17:47;;;;;;;44.73;26.03;;;0.50;43.60;;;;;;6229248;28;20318;-54
2021/12/08 05:21:01;;;;;;;37.57;24.27;;;0.70;44.20;;;;;;6220069;28;20372;-48
2021/12/08 05:24:08;;;;;;;34.93;24.93;;;0.40;44.50;;;;;;6237406;28;20318;-54
2021/12/08 05:27:15;;;;;;;38.67;24.60;;;0.30;44.30;;;;;;6236119;28;20322;-54
2021/12/08 05:30:26;;;;;;;40.83;25.40;;;0.50;44.40;;;;;;6233531;28;20310;-56
2021/12/08 05:33:29;;;;;;;36.37;23.23;;;0.80;43.90;;;;;;6236963;28;20544;-54
2021/12/08 05:36:33;;;;;;;39.03;25.20;;;0.50;43.10;;;;;;6235720;28;20234;-54
2021/12/08 05:39:38;;;;;;;38.93;25.17;;;0.80;43.60;;;;;;6254419;28;20293;-54
2021/12/08 05:42:41;;;;;;;38.60;26.23;;;0.70;43.30;;;;;;6265810;28;20225;-55
2021/12/08 05:45:46;;;;;;;40.90;26.10;;;0.70;42.90;;;;;;6261627;28;20364;-56
2021/12/08 05:48:50;;;;;;;37.73;24.73;;;0.60;43.90;;;;;;6255965;28;20373;-53
2021/12/08 05:51:54;;;;;;;38.30;24.50;;;0.50;43.40;;;;;;6253287;28;20238;-54
2021/12/08 05:54:57;;;;;;;41.67;25.33;;;0.30;44.40;;;;;;6256603;28;20669;-53
2021/12/08 05:58:00;;;;;;;40.00;25.30;;;0.50;43.60;;;;;;6260851;28;20240;-56
2021/12/08 06:01:08;;;;;;;36.77;24.77;;;0.50;43.30;;;;;;6257790;28;20360;-54
2021/12/08 06:04:12;;;;;;;37.03;24.33;;;0.50;44.90;;;;;;6260027;28;20661;-54
2021/12/08 06:07:16;;;;;;;39.50;24.77;;;0.50;45.00;;;;;;6262458;28;20245;-54
2021/12/08 06:10:22;;;;;;;42.23;24.73;;;0.50;44.30;;;;;;6256611;28;20384;-55
2021/12/08 06:13:25;;;;;;;35.67;23.47;;;0.50;44.60;;;;;;6255525;28;20318;-53
2021/12/08 06:16:30;;;;;;;39.13;23.47;;;0.60;44.30;;;;;;6258312;28;20328;-55
2021/12/08 06:19:33;;;;;;;35.10;23.63;;;0.40;45.60;;;;;;6257566;28;20234;-55
2021/12/08 06:22:36;;;;;;;38.33;24.07;;;0.50;44.40;;;;;;6259725;28;20307;-55
2021/12/08 06:25:40;;;;;;;38.43;24.83;;;0.40;45.40;;;;;;6252905;28;20399;-55
2021/12/08 06:28:43;;;;;;;38.33;23.60;;;0.50;46.00;;;;;;6257270;28;20241;-55
2021/12/08 06:31:51;;;;;;;40.70;24.03;;;0.50;46.00;;;;;;6252264;28;20230;-54
2021/12/08 06:34:57;;;;;;;41.77;25.37;;;0.50;45.40;;;;;;6258035;28;20284;-56
2021/12/08 06:38:00;;;;;;;43.63;25.07;;;0.50;45.20;;;;;;6257891;28;20234;-55
2021/12/08 06:41:07;;;;;;;41.83;23.03;;;0.50;44.10;;;;;;6260669;28;20271;-55
2021/12/08 06:44:14;;;;;;;42.03;26.07;;;0.40;44.30;;;;;;6255112;28;20384;-55
2021/12/08 06:47:22;;;;;;;38.27;24.23;;;0.30;43.70;;;;;;6250211;28;20305;-56
2021/12/08 06:50:28;;;;;;;41.07;25.43;;;0.20;43.50;;;;;;6259579;28;20688;-56
2021/12/08 06:53:32;;;;;;;42.37;25.70;;;0.60;44.50;;;;;;6254405;28;20317;-55
2021/12/08 06:56:39;;;;;;;44.10;26.77;;;0.60;45.10;;;;;;6262964;28;20245;-55
2021/12/08 06:59:54;;;;;;;40.23;25.83;;;0.40;43.30;;;;;;6257097;28;20353;-55
2021/12/08 07:03:06;;;;;;;42.43;25.63;;;0.20;44.10;;;;;;6261396;28;20718;-54
2021/12/08 07:06:30;;;;;;;43.83;25.43;;;0.20;43.70;;;;;;6260434;28;20257;-54
2021/12/08 07:09:38;;;;;;;44.93;25.93;;;0.30;43.10;;;;;;6262534;28;20281;-54
2021/12/08 07:12:44;;;;;;;42.53;24.10;;;0.40;42.90;;;;;;6256993;28;20245;-55
2021/12/08 07:15:51;;;;;;;41.13;24.03;;;0.40;42.60;;;;;;6254978;28;20324;-53
2021/12/08 07:19:01;;;;;;;50.90;25.53;;;0.60;43.50;;;;;;6259385;28;20225;-54
2021/12/08 07:22:07;;;;;;;44.43;25.83;;;0.60;43.40;;;;;;6261760;28;20449;-53
2021/12/08 07:25:12;;;;;;;42.63;25.73;;;0.40;42.90;;;;;;6260020;28;20228;-54
2021/12/08 07:28:17;;;;;;;46.53;26.30;;;0.40;43.00;;;;;;6261035;28;20260;-55
2021/12/08 07:31:25;;;;;;;43.50;25.10;;;0.60;44.20;;;;;;6257382;28;20262;-55
2021/12/08 07:34:32;;;;;;;46.47;26.53;;;0.60;43.90;;;;;;6250857;28;20379;-53
2021/12/08 07:37:36;;;;;;;49.90;26.77;;;0.30;42.90;;;;;;6262940;28;20244;-55
2021/12/08 07:40:44;;;;;;;46.10;27.23;;;0.50;43.00;;;;;;6261504;28;20257;-54
2021/12/08 07:43:50;;;;;;;47.80;25.63;;;0.40;43.50;;;;;;6255968;28;20730;-54
2021/12/08 07:46:56;;;;;;;47.17;26.73;;;0.50;43.80;;;;;;6260780;28;20234;-55
2021/12/08 07:50:06;;;;;;;47.43;27.63;;;0.50;43.20;;;;;;6261378;28;20334;-54
2021/12/08 07:53:10;;;;;;;51.53;26.83;;;0.60;42.30;;;;;;6262438;28;20339;-54
2021/12/08 07:56:16;;;;;;;50.83;26.47;;;0.60;42.00;;;;;;6261726;28;20291;-51
2021/12/08 07:59:20;;;;;;;48.33;25.83;;;1.00;40.50;;;;;;6262154;28;20259;-56
2021/12/08 08:02:26;;;;;;;52.33;28.17;;;0.60;41.00;;;;;;6261973;28;20426;-54
2021/12/08 08:05:32;;;;;;;49.30;26.77;;;0.70;40.90;;;;;;6261204;28;20246;-54
2021/12/08 08:08:35;;;;;;;46.80;27.57;;;1.00;40.70;;;;;;6263032;28;20742;-54
2021/12/08 08:11:42;;;;;;;53.30;27.77;;;1.00;39.40;;;;;;6252869;28;20254;-56
2021/12/08 08:14:50;;;;;;;51.60;27.67;;;0.90;39.40;;;;;;6250597;28;20329;-55
2021/12/08 08:17:54;;;;;;;49.30;26.40;;;1.10;40.60;;;;;;6251820;28;20245;-54
2021/12/08 08:21:04;;;;;;;48.23;27.10;;;1.00;40.20;;;;;;6258930;28;20340;-55
2021/12/08 08:24:08;;;;;;;50.13;27.77;;;0.80;40.00;;;;;;6255998;28;20327;-55
2021/12/08 08:27:15;;;;;;;54.33;27.87;;;0.90;39.70;;;;;;6255557;28;20290;-54
2021/12/08 08:30:21;;;;;;;54.77;28.23;;;1.00;40.80;;;;;;6259390;28;20238;-54
2021/12/08 08:33:28;;;;;;;48.60;26.33;;;0.80;39.70;;;;;;6266385;28;20239;-55
2021/12/08 08:36:35;;;;;;;57.27;29.00;;;0.80;40.90;;;;;;6256555;28;20251;-55
2021/12/08 08:39:41;;;;;;;56.47;29.33;;;1.00;40.80;;;;;;6252689;28;20238;-55
2021/12/08 08:42:46;;;;;;;49.03;27.47;;;1.00;40.40;;;;;;6249719;28;20372;-53
2021/12/08 08:45:52;;;;;;;51.90;27.37;;;0.90;39.30;;;;;;6255221;28;20364;-54
2021/12/08 08:49:00;;;;;;;53.63;27.37;;;1.00;38.80;;;;;;6253230;28;20611;-54
2021/12/08 08:52:08;;;;;;;50.37;28.07;;;1.20;37.20;;;;;;6258756;28;20334;-54
2021/12/08 08:55:18;;;;;;;50.70;28.43;;;1.00;37.90;;;;;;6261078;28;20234;-53
2021/12/08 08:58:24;;;;;;;51.07;28.47;;;1.40;37.40;;;;;;6248664;28;20238;-54
2021/12/08 09:01:29;;;;;;;45.97;26.53;;;1.30;36.80;;;;;;6263203;28;20270;-56
2021/12/08 09:04:36;;;;;;;49.83;27.03;;;1.40;36.20;;;;;;6260222;28;20222;-54
2021/12/08 09:07:45;;;;;;;51.53;28.40;;;1.30;35.80;;;;;;6252163;28;20610;-55
2021/12/08 09:10:52;;;;;;;46.27;26.03;;;1.30;35.80;;;;;;6257504;28;20743;-53
2021/12/08 09:14:00;;;;;;;50.63;27.90;;;1.40;36.20;;;;;;6252271;28;20313;-56
2021/12/08 09:17:08;;;;;;;49.47;27.53;;;1.50;35.20;;;;;;6258727;28;20261;-54
2021/12/08 09:20:16;;;;;;;46.70;25.40;;;1.40;35.30;;;;;;6259479;28;20375;-54
2021/12/08 09:23:25;;;;;;;47.80;27.30;;;1.40;36.10;;;;;;6255354;28;20288;-56
2021/12/08 09:26:32;;;;;;;48.13;26.73;;;1.30;34.50;;;;;;6258900;28;20306;-54
2021/12/08 09:29:43;;;;;;;49.33;26.57;;;1.30;33.60;;;;;;6259957;28;20682;-62
2021/12/08 09:32:49;;;;;;;46.40;28.17;;;1.70;33.50;;;;;;6258166;28;20234;-53
2021/12/08 09:35:55;;;;;;;48.03;26.70;;;1.50;35.10;;;;;;6248162;28;20253;-55
2021/12/08 09:39:05;;;;;;;48.87;26.40;;;1.60;34.20;;;;;;6254973;28;20745;-55
2021/12/08 09:42:11;;;;;;;45.93;26.43;;;1.60;34.60;;;;;;6255896;28;20763;-55
2021/12/08 09:45:17;;;;;;;48.63;27.30;;;1.70;33.70;;;;;;6249938;28;20265;-54
2021/12/08 09:48:26;;;;;;;49.30;26.70;;;1.40;35.50;;;;;;6254723;28;20268;-55
2021/12/08 09:51:30;;;;;;;51.03;28.33;;;1.50;33.90;;;;;;6258127;28;20308;-55
2021/12/08 09:54:34;;;;;;;51.47;27.03;;;1.40;35.30;;;;;;6252990;28;20460;-55
2021/12/08 09:57:37;;;;;;;50.83;27.10;;;1.70;34.00;;;;;;6251718;28;20290;-52
2021/12/08 10:00:43;;;;;;;54.60;27.53;;;1.70;33.70;;;;;;6252390;28;20245;-54
2021/12/08 10:03:46;;;;;;;45.93;26.73;;;1.40;33.90;;;;;;6256724;28;20245;-56
2021/12/08 10:06:50;;;;;;;48.57;27.87;;;1.60;33.40;;;;;;6258716;28;20261;-55
2021/12/08 10:09:55;;;;;;;52.77;29.43;;;1.70;34.40;;;;;;6254636;28;20611;-53
2021/12/08 10:12:58;;;;;;;47.93;27.67;;;1.70;34.50;;;;;;6262352;28;20225;-55
2021/12/08 10:16:00;;;;;;;51.90;27.73;;;1.60;33.20;;;;;;6262703;28;20483;-55
2021/12/08 10:19:05;;;;;;;50.67;28.83;;;1.60;32.50;;;;;;6253227;28;20592;-56
2021/12/08 10:22:17;;;;;;;48.33;28.53;;;2.00;32.60;;;;;;6258166;28;20371;-54
2021/12/08 10:25:23;;;;;;;48.97;28.03;;;1.80;32.20;;;;;;6257860;28;20320;-54
2021/12/08 10:28:28;;;;;;;49.80;27.07;;;2.00;30.60;;;;;;6262878;28;20235;-55
2021/12/08 10:31:33;;;;;;;50.57;27.60;;;1.90;29.30;;;;;;6258251;28;20730;-56
2021/12/08 10:34:47;;;;;;;51.73;27.87;;;1.90;30.90;;;;;;6263216;28;20241;-54
2021/12/08 10:37:59;;;;;;;52.23;28.83;;;2.10;29.60;;;;;;6264703;28;20261;-54
2021/12/08 10:41:05;;;;;;;52.83;28.33;;;2.10;29.60;;;;;;6261892;28;20234;-55
2021/12/08 10:44:08;;;;;;;52.50;28.27;;;2.10;29.00;;;;;;6250623;28;20315;-53
2021/12/08 10:47:12;;;;;;;47.27;28.73;;;2.30;28.20;;;;;;6247827;28;20431;-54
2021/12/08 10:57:24;;;;;;;52.50;29.00;;;2.30;28.60;;;;;;6205323;28;20298;-56
2021/12/08 11:00:30;;;;;;;48.53;28.50;;;2.30;28.20;;;;;;6205101;28;20277;-56
2021/12/08 11:03:39;;;;;;;50.60;28.77;;;2.30;27.00;;;;;;6258584;28;20584;-55
2021/12/08 11:06:43;;;;;;;51.10;28.00;;;2.30;26.20;;;;;;6263136;28;20235;-55
2021/12/08 11:09:46;;;;;;;45.70;27.20;;;2.20;24.90;;;;;;6258808;28;20745;-56
2021/12/08 11:12:51;;;;;;;49.07;27.63;;;2.50;24.70;;;;;;6265966;28;20614;-54
2021/12/08 11:16:08;;;;;;;47.43;27.30;;;2.30;25.50;;;;;;6262905;28;20730;-56
2021/12/08 11:19:15;;;;;;;49.87;28.57;;;2.30;27.20;;;;;;6259531;28;20230;-54
2021/12/08 11:22:18;;;;;;;45.43;26.73;;;2.50;27.70;;;;;;6259090;28;20868;-55
2021/12/08 11:25:34;;;;;;;48.97;27.63;;;2.30;26.90;;;;;;6261570;28;20312;-55
2021/12/08 11:28:38;;;;;;;51.27;28.70;;;2.20;28.00;;;;;;6260638;28;20234;-55
2021/12/08 11:31:43;;;;;;;50.50;26.70;;;2.30;28.30;;;;;;6251683;28;20311;-55
2021/12/08 11:34:49;;;;;;;41.50;27.47;;;2.20;28.30;;;;;;6261855;28;21211;-56
2021/12/08 11:38:00;;;;;;;50.20;27.23;;;2.20;27.90;;;;;;6262898;28;20344;-55
2021/12/08 11:41:11;;;;;;;46.53;28.03;;;2.30;27.60;;;;;;6262407;28;20230;-56
2021/12/08 11:44:18;;;;;;;45.87;26.93;;;2.30;26.70;;;;;;6257012;28;20339;-56
2021/12/08 11:47:35;;;;;;;47.80;28.33;;;2.10;26.50;;;;;;6252158;28;20721;-55
2021/12/08 11:50:38;;;;;;;49.73;27.27;;;2.30;26.60;;;;;;6260618;28;20710;-56
2021/12/08 11:53:42;;;;;;;46.33;26.77;;;2.20;26.90;;;;;;6258022;28;20738;-56
2021/12/08 11:56:45;;;;;;;49.00;26.83;;;2.20;27.70;;;;;;6260416;28;20455;-54
2021/12/08 11:59:57;;;;;;;48.50;27.80;;;2.20;27.80;;;;;;6256907;28;20233;-56
2021/12/08 12:03:02;;;;;;;49.00;27.10;;;2.20;28.80;;;;;;6247417;28;20239;-55
2021/12/08 12:06:07;;;;;;;48.30;26.07;;;2.30;27.90;;;;;;6253484;28;20238;-55
2021/12/08 12:09:10;;;;;;;48.30;26.90;;;2.20;27.90;;;;;;6260620;28;20237;-55
2021/12/08 12:12:27;;;;;;;46.87;27.23;;;2.50;28.80;;;;;;6259445;28;20234;-54
2021/12/08 12:15:32;;;;;;;45.97;26.83;;;2.30;27.50;;;;;;6254663;28;20291;-59
2021/12/08 12:18:35;;;;;;;48.03;27.30;;;2.40;27.30;;;;;;6251553;28;20260;-58
2021/12/08 12:21:56;;;;;;;48.47;28.33;;;2.50;26.80;;;;;;6257725;28;20239;-56
2021/12/08 12:25:25;;;;;;;50.97;27.50;;;2.50;25.10;;;;;;6255844;28;20523;-56
2021/12/08 12:28:46;;;;;;;50.27;26.93;;;2.40;25.30;;;;;;6259981;28;20242;-56
2021/12/08 12:31:53;;;;;;;49.23;26.03;;;2.50;24.80;;;;;;6254389;28;20723;-54
2021/12/08 12:35:11;;;;;;;45.20;25.27;;;2.50;24.00;;;;;;6254381;28;20238;-54
2021/12/08 12:38:13;;;;;;;41.63;25.83;;;2.40;25.10;;;;;;6257505;28;20384;-55
2021/12/08 12:41:26;;;;;;;40.97;25.27;;;2.50;24.00;;;;;;6261863;28;20721;-54
2021/12/08 12:44:30;;;;;;;44.37;26.77;;;2.40;25.60;;;;;;6254911;28;20317;-54
2021/12/08 12:47:36;;;;;;;43.13;26.87;;;2.40;23.80;;;;;;6250140;28;20315;-55
2021/12/08 12:51:01;;;;;;;49.37;27.17;;;2.50;25.30;;;;;;6250669;28;20316;-55
2021/12/08 12:54:03;;;;;;;46.37;26.27;;;2.80;25.60;;;;;;6250478;28;20396;-55
2021/12/08 12:57:07;;;;;;;43.47;26.60;;;2.90;25.20;;;;;;6255126;28;20799;-56
2021/12/08 13:00:26;;;;;;;43.13;25.40;;;2.70;24.00;;;;;;6258924;28;20648;-54
2021/12/08 13:03:42;;;;;;;47.03;26.17;;;2.60;24.70;;;;;;6255370;28;20238;-54
2021/12/08 13:06:47;;;;;;;47.63;26.27;;;2.50;24.20;;;;;;6258868;28;20242;-54
2021/12/08 13:09:52;;;;;;;42.13;25.97;;;2.40;24.70;;;;;;6247970;28;20236;-54
2021/12/08 13:13:10;;;;;;;42.70;25.23;;;2.40;26.20;;;;;;6253259;28;20509;-55
2021/12/08 13:16:22;;;;;;;46.53;26.00;;;2.30;26.60;;;;;;6255018;28;20282;-54
2021/12/08 13:19:39;;;;;;;47.90;27.40;;;2.10;27.40;;;;;;6251410;28;20648;-53
2021/12/08 13:22:49;;;;;;;46.43;25.70;;;2.30;27.60;;;;;;6249962;28;20230;-54
2021/12/08 13:26:00;;;;;;;51.77;26.77;;;2.30;28.90;;;;;;6249583;28;20242;-55
2021/12/08 13:29:18;;;;;;;47.87;27.30;;;2.40;28.00;;;;;;6254519;28;20649;-55
2021/12/08 13:32:44;;;;;;;51.47;27.23;;;2.30;29.30;;;;;;6260829;28;20674;-54
2021/12/08 13:35:48;;;;;;;44.57;25.53;;;2.30;29.70;;;;;;6258758;28;20234;-55
2021/12/08 13:39:16;;;;;;;55.30;27.73;;;2.20;29.90;;;;;;6259876;28;20606;-54
2021/12/08 13:42:27;;;;;;;50.87;27.23;;;2.30;30.20;;;;;;6257232;28;20320;-54
2021/12/08 13:45:42;;;;;;;44.30;26.23;;;2.30;30.20;;;;;;6252738;28;20241;-54
2021/12/08 13:49:13;;;;;;;54.43;27.90;;;2.20;29.80;;;;;;6247606;28;20980;-55
2021/12/08 13:52:29;;;;;;;49.77;28.17;;;2.20;30.50;;;;;;6258545;28;20628;-54
2021/12/08 13:55:31;;;;;;;50.17;27.00;;;2.00;30.10;;;;;;6259874;28;20234;-55
2021/12/08 13:58:37;;;;;;;52.40;27.17;;;2.20;30.20;;;;;;6253928;28;20302;-54
2021/12/08 14:01:41;;;;;;;49.80;27.07;;;2.30;30.00;;;;;;6251886;28;20233;-54
2021/12/08 14:04:44;;;;;;;51.77;27.73;;;2.00;29.00;;;;;;6254160;28;20253;-55
2021/12/08 14:07:52;;;;;;;49.90;27.37;;;2.20;30.80;;;;;;6258358;28;20373;-56
2021/12/08 14:10:57;;;;;;;48.57;27.77;;;2.10;31.30;;;;;;6246488;28;20276;-54
2021/12/08 14:14:00;;;;;;;46.67;26.53;;;2.20;30.20;;;;;;6253278;28;20279;-53
2021/12/08 14:17:03;;;;;;;54.43;29.27;;;2.10;29.80;;;;;;6253706;28;20272;-54
2021/12/08 14:20:33;;;;;;;54.00;27.63;;;2.20;30.00;;;;;;6253118;28;20717;-54
2021/12/08 14:23:41;;;;;;;56.87;28.27;;;2.10;32.20;;;;;;6259940;28;20234;-55
2021/12/08 14:26:48;;;;;;;51.87;27.67;;;2.00;31.30;;;;;;6249040;28;20304;-54
2021/12/08 14:29:51;;;;;;;47.03;26.93;;;2.10;31.70;;;;;;6260428;28;20768;-54
2021/12/08 14:33:01;;;;;;;52.33;27.70;;;1.90;32.90;;;;;;6249841;28;20309;-55
2021/12/08 14:36:06;;;;;;;53.97;29.43;;;2.00;32.70;;;;;;6259646;28;20347;-55
2021/12/08 14:39:13;;;;;;;52.37;27.17;;;2.10;31.10;;;;;;6252716;28;20721;-54
2021/12/08 14:42:19;;;;;;;51.17;28.43;;;2.10;32.00;;;;;;6258859;28;20652;-54
2021/12/08 14:45:27;;;;;;;51.90;28.30;;;1.90;33.60;;;;;;6255249;28;20238;-54
2021/12/08 14:48:29;;;;;;;53.40;28.07;;;1.90;33.60;;;;;;6254044;28;20404;-54
2021/12/08 14:51:35;;;;;;;52.27;28.40;;;1.80;34.30;;;;;;6259408;28;20630;-54
2021/12/08 14:54:41;;;;;;;49.90;28.47;;;1.90;33.70;;;;;;6244935;28;20227;-54
2021/12/08 14:57:45;;;;;;;49.87;27.87;;;1.80;33.70;;;;;;6258759;28;20619;-55
2021/12/08 15:00:49;;;;;;;51.33;27.70;;;1.80;31.80;;;;;;6261582;28;20245;-55
2021/12/08 15:03:52;;;;;;;50.30;27.73;;;1.80;32.50;;;;;;6258167;28;20237;-54
2021/12/08 15:06:56;;;;;;;49.10;26.87;;;1.90;33.70;;;;;;6260916;28;20311;-54
2021/12/08 15:10:05;;;;;;;48.43;26.30;;;1.80;32.20;;;;;;6262981;28;20547;-54
2021/12/08 15:13:13;;;;;;;56.67;27.93;;;1.60;33.30;;;;;;6256312;28;20244;-55
2021/12/08 15:16:18;;;;;;;43.83;26.30;;;1.80;34.30;;;;;;6268857;28;20238;-54
2021/12/08 15:19:28;;;;;;;48.13;28.03;;;1.60;34.90;;;;;;6257441;28;20237;-54
2021/12/08 15:22:39;;;;;;;50.43;28.60;;;1.70;35.00;;;;;;6262792;28;20233;-54
2021/12/08 15:25:46;;;;;;;45.23;27.17;;;1.90;35.00;;;;;;6259832;28;20273;-54
2021/12/08 15:28:49;;;;;;;46.03;26.60;;;1.60;33.60;;;;;;6261675;28;20363;-53
2021/12/08 15:31:55;;;;;;;48.03;27.93;;;1.80;35.50;;;;;;6263116;28;20261;-55
2021/12/08 15:35:04;;;;;;;53.20;27.53;;;1.70;34.40;;;;;;6262179;28;20230;-53
2021/12/08 15:38:08;;;;;;;45.23;25.53;;;1.60;33.70;;;;;;6262841;28;20668;-55
2021/12/08 15:41:15;;;;;;;49.60;25.90;;;1.70;35.30;;;;;;6262130;28;20333;-54
2021/12/08 15:44:19;;;;;;;53.37;29.07;;;1.80;34.20;;;;;;6263003;28;20249;-54
2021/12/08 15:47:22;;;;;;;47.07;26.63;;;1.60;34.50;;;;;;6251131;28;20241;-53
2021/12/08 15:50:31;;;;;;;51.77;27.80;;;1.50;34.80;;;;;;6256552;28;20787;-56
2021/12/08 15:53:37;;;;;;;48.37;27.90;;;1.70;35.10;;;;;;6270372;28;20931;-54
2021/12/08 15:56:44;;;;;;;50.57;27.40;;;1.60;35.40;;;;;;6253178;28;20238;-56
2021/12/08 15:59:50;;;;;;;47.33;26.50;;;1.70;33.10;;;;;;6245431;28;20539;-55
2021/12/08 16:02:58;;;;;;;48.10;26.87;;;1.80;32.70;;;;;;6262289;28;20324;-55
2021/12/08 16:06:15;;;;;;;51.67;27.83;;;1.60;32.40;;;;;;6255824;28;20875;-54
2021/12/08 16:09:21;;;;;;;47.27;26.83;;;1.50;33.50;;;;;;6258965;28;20792;-55
2021/12/08 16:12:26;;;;;;;50.93;28.60;;;1.70;34.40;;;;;;6259850;28;20451;-54
2021/12/08 16:15:40;;;;;;;48.10;27.90;;;1.60;33.70;;;;;;6260087;28;20244;-53
2021/12/08 16:18:43;;;;;;;49.73;28.03;;;1.50;34.60;;;;;;6248202;28;20236;-55
2021/12/08 16:21:46;;;;;;;52.27;28.23;;;1.50;34.10;;;;;;6261456;28;20377;-54
2021/12/08 16:24:51;;;;;;;48.57;26.67;;;1.50;34.50;;;;;;6260324;28;20604;-54
2021/12/08 16:27:57;;;;;;;52.33;30.17;;;1.60;34.80;;;;;;6259920;28;20641;-54
2021/12/08 16:30:59;;;;;;;46.63;27.70;;;1.60;34.10;;;;;;6261083;28;20642;-54
2021/12/08 16:34:02;;;;;;;47.77;27.30;;;1.40;34.10;;;;;;6260645;28;20776;-54